»·PEaware :: SWA1610 KLAS-KSAN

SWA1610 :: KLAS-KSAN

FLIGHT INFORMATION

Flight Status: Arrived
Operator:
Southwest Airlines
More flights by this operator :: More flights under this callsign
Pilot: Alec D. (17934)
Aircraft: BOEING 737-700
(B737)
More flights by this aircraft type
Origin: KLAS McCarran Intl
United States
Destination: KSAN San Diego Intl-Lindbergh
United States
More flights between these airports :: More routes between these airports
Route: BOACH8 LVELL LUCKI1
File this flight plan on PilotEdge
Remarks:
Altitude:
(Current/Filed)
28,000ft
Speed:
(Current/Filed)
420kts
Departed: 09-Sep-18 09:14 AM
Arrived: 09-Sep-18 10:00 AM
Distance/Time
Traveled:
225nm/0:46
Distance/Time
To Go:
Arrived

Flight Plot

Page will automatically refresh every two minutes.

Flight plan parsing failed; only flown route is shown


Map Options




Map Legend


Flown Route
Filed Route
Departure Airport
Arrival Airport
Navaid (VOR, NDB)
Fix

Horizontal Profiles

Position Reports

Time Latitude Longitude Heading Altitude Ground
Speed
09-Sep-18 08:51 36.080658 -115.147590 67 2191ft 0kts
09-Sep-18 08:52 36.080658 -115.147590 67 2191ft 0kts
09-Sep-18 08:53 36.080658 -115.147590 67 2191ft 0kts
09-Sep-18 08:54 36.080658 -115.147590 67 2191ft 0kts
09-Sep-18 08:55 36.080658 -115.147590 67 2191ft 0kts
09-Sep-18 08:56 36.080658 -115.147590 67 2191ft 0kts
09-Sep-18 08:57 36.080658 -115.147590 67 2191ft 0kts
09-Sep-18 08:58 36.080658 -115.147590 67 2191ft 0kts
09-Sep-18 08:59 36.080658 -115.147590 67 2191ft 0kts
09-Sep-18 09:00 36.080658 -115.147590 67 2191ft 0kts
09-Sep-18 09:01 36.080658 -115.147590 67 2191ft 0kts
09-Sep-18 09:02 36.080658 -115.147590 67 2191ft 0kts
09-Sep-18 09:03 36.080658 -115.147590 67 2191ft 0kts
09-Sep-18 09:04 36.080647 -115.147622 67 2191ft 1kts
09-Sep-18 09:05 36.080710 -115.148063 144 2191ft 0kts
09-Sep-18 09:06 36.080708 -115.148062 144 2191ft 0kts
09-Sep-18 09:07 36.080703 -115.148057 144 2191ft 0kts
09-Sep-18 09:08 36.080699 -115.148053 144 2191ft 0kts
09-Sep-18 09:09 36.079964 -115.147619 153 2191ft 1kts
09-Sep-18 09:10 36.078333 -115.144297 94 2191ft 19kts
09-Sep-18 09:11 36.078263 -115.136991 90 2191ft 20kts
09-Sep-18 09:12 36.078235 -115.129337 88 2191ft 15kts
09-Sep-18 09:13 36.078038 -115.123131 121 2191ft 15kts
09-Sep-18 09:14 36.077214 -115.121372 161 2191ft 0kts
09-Sep-18 09:15 36.076340 -115.122102 268 2191ft 0kts
09-Sep-18 09:16 36.076342 -115.149796 268 2584ft 169kts
09-Sep-18 09:17 36.074511 -115.213764 267 5589ft 206kts
09-Sep-18 09:18 36.039888 -115.273280 195 7068ft 274kts
09-Sep-18 09:19 35.965601 -115.302121 190 7029ft 281kts
09-Sep-18 09:20 35.885684 -115.311788 185 9972ft 293kts
09-Sep-18 09:21 35.796744 -115.308201 174 12567ft 341kts
09-Sep-18 09:22 35.699629 -115.297150 176 15842ft 362kts
09-Sep-18 09:23 35.595099 -115.297963 184 18656ft 386kts
09-Sep-18 09:24 35.485196 -115.302334 184 21375ft 405kts
09-Sep-18 09:25 35.370276 -115.306867 185 23778ft 422kts
09-Sep-18 09:26 35.250996 -115.311563 185 26124ft 430kts
09-Sep-18 09:27 35.131980 -115.316242 185 27937ft 426kts
09-Sep-18 09:28 35.013291 -115.320893 185 27920ft 425kts
09-Sep-18 09:29 34.895136 -115.325504 185 27917ft 426kts
09-Sep-18 09:30 34.777400 -115.333091 196 27918ft 420kts
09-Sep-18 09:31 34.668151 -115.380350 203 27941ft 415kts
09-Sep-18 09:32 34.559546 -115.427825 203 27952ft 415kts
09-Sep-18 09:33 34.450899 -115.475184 203 27966ft 415kts
09-Sep-18 09:34 34.341838 -115.522719 204 27974ft 415kts
09-Sep-18 09:35 34.242603 -115.591003 215 27962ft 410kts
09-Sep-18 09:36 34.138271 -115.648934 204 27965ft 414kts
09-Sep-18 09:37 34.031011 -115.699514 204 27956ft 414kts
09-Sep-18 09:38 33.923728 -115.750002 204 27939ft 415kts
09-Sep-18 09:39 33.816700 -115.802458 205 27915ft 414kts
09-Sep-18 09:40 33.709593 -115.853612 204 27898ft 414kts
09-Sep-18 09:41 33.602406 -115.903725 204 26613ft 413kts
09-Sep-18 09:42 33.505460 -115.962171 231 25679ft 363kts
09-Sep-18 09:43 33.446675 -116.062394 238 23823ft 367kts
09-Sep-18 09:44 33.388916 -116.161777 238 22109ft 358kts
09-Sep-18 09:45 33.328572 -116.254400 218 20535ft 357kts
09-Sep-18 09:46 33.237324 -116.308787 208 18335ft 371kts
09-Sep-18 09:47 33.143796 -116.363486 207 15795ft 373kts
09-Sep-18 09:48 33.054870 -116.415404 207 13366ft 337kts
09-Sep-18 09:49 32.978250 -116.471555 220 11868ft 315kts
09-Sep-18 09:50 32.912793 -116.537826 221 10298ft 294kts
09-Sep-18 09:51 32.852267 -116.598808 222 8780ft 277kts
09-Sep-18 09:52 32.794527 -116.655637 207 8025ft 268kts
09-Sep-18 09:53 32.751801 -116.723551 243 7377ft 264kts
09-Sep-18 09:54 32.715674 -116.800788 241 6013ft 263kts
09-Sep-18 09:55 32.689354 -116.875699 250 5173ft 237kts
09-Sep-18 09:56 32.674923 -116.948504 278 3992ft 224kts
09-Sep-18 09:57 32.690833 -117.013894 286 3236ft 186kts
09-Sep-18 09:58 32.704205 -117.068480 285 2353ft 160kts
09-Sep-18 09:58 32.713793 -117.108129 285 1356ft 144kts
09-Sep-18 09:59 32.724769 -117.153634 284 550ft 143kts
09-Sep-18 10:01 32.735208 -117.196489 285 26ft 44kts
09-Sep-18 10:02 32.734654 -117.198093 118 25ft 12kts
09-Sep-18 10:03 32.733403 -117.195463 223 25ft 12kts
09-Sep-18 10:04 32.733168 -117.195739 225 25ft 0kts
09-Sep-18 10:05 32.733168 -117.195739 225 25ft 0kts
09-Sep-18 10:06 32.733168 -117.195739 225 25ft 0kts
09-Sep-18 10:07 32.733168 -117.195739 225 25ft 0kts
09-Sep-18 10:08 32.733168 -117.195739 225 25ft 0kts
09-Sep-18 10:09 32.733168 -117.195739 225 25ft 0kts
09-Sep-18 10:10 32.733168 -117.195739 225 25ft 0kts
09-Sep-18 10:11 32.733168 -117.195739 225 25ft 0kts
09-Sep-18 10:12 32.733168 -117.195739 225 25ft 0kts

Navigation Log

Ident Type
Flight plan parsing failed, navigation log unavailable